createdAt,value
2019-03-08T00:03:05.356Z,3.97
2019-03-08T00:08:22.460Z,3.07
2019-03-08T00:13:39.281Z,7.03
2019-03-08T00:18:56.319Z,7.10
2019-03-08T00:24:12.899Z,8.70
2019-03-08T00:29:29.852Z,9.50
2019-03-08T00:34:46.724Z,11.70
2019-03-08T00:40:04.156Z,4.43
2019-03-08T00:45:21.282Z,3.33
2019-03-08T00:50:37.605Z,7.57
2019-03-08T00:55:54.012Z,8.50
2019-03-08T01:01:10.467Z,4.27
2019-03-08T01:06:27.453Z,9.57
2019-03-08T01:11:45.289Z,5.87
2019-03-08T01:17:01.587Z,5.90
2019-03-08T01:22:18.255Z,6.87
2019-03-08T01:27:35.659Z,7.23
2019-03-08T01:32:52.364Z,7.50
2019-03-08T01:38:08.611Z,7.77
2019-03-08T01:43:25.386Z,12.83
2019-03-08T01:48:42.009Z,8.80
2019-03-08T01:53:59.051Z,8.70
2019-03-08T01:59:15.567Z,13.10
2019-03-08T02:04:32.257Z,11.10
2019-03-08T02:09:49.206Z,8.47
2019-03-08T02:15:06.099Z,10.23
2019-03-08T02:20:23.232Z,4.83
2019-03-08T02:25:40.125Z,7.13
2019-03-08T02:30:56.995Z,4.63
2019-03-08T02:36:14.474Z,9.67
2019-03-08T02:41:31.373Z,8.77
2019-03-08T02:46:48.079Z,10.53
2019-03-08T02:52:04.870Z,7.37
2019-03-08T02:57:21.488Z,5.10
2019-03-08T03:02:38.039Z,5.33
2019-03-08T03:07:54.710Z,8.87
2019-03-08T03:13:11.932Z,5.10
2019-03-08T03:18:28.674Z,8.00
2019-03-08T03:23:45.573Z,9.43
2019-03-08T03:29:02.296Z,10.50
2019-03-08T03:34:18.764Z,5.43
2019-03-08T03:39:35.638Z,8.27
2019-03-08T03:44:52.690Z,6.33
2019-03-08T03:50:09.337Z,11.40
2019-03-08T03:55:26.349Z,8.00
2019-03-08T04:00:43.237Z,7.90
2019-03-08T04:06:00.061Z,17.87
2019-03-08T04:11:16.827Z,9.00
2019-03-08T04:16:33.635Z,9.90
2019-03-08T04:21:50.158Z,6.60
2019-03-08T04:27:06.970Z,7.83
2019-03-08T04:32:24.041Z,11.30
2019-03-08T04:37:41.094Z,9.97
2019-03-08T04:42:57.838Z,9.20
2019-03-08T04:48:14.382Z,9.47
2019-03-08T04:53:31.003Z,6.07
2019-03-08T04:58:47.535Z,8.47
2019-03-08T05:04:04.540Z,9.67
2019-03-08T05:09:21.531Z,9.70
2019-03-08T05:14:38.184Z,8.17
2019-03-08T05:19:55.102Z,10.40
2019-03-08T05:25:12.006Z,10.17
2019-03-08T05:30:28.831Z,7.50
2019-03-08T05:35:46.307Z,15.27
2019-03-08T05:41:02.828Z,12.43
2019-03-08T05:46:19.958Z,13.07
2019-03-08T05:51:36.755Z,17.03
2019-03-08T05:56:53.096Z,10.03
2019-03-08T06:02:09.851Z,14.70
2019-03-08T06:07:26.532Z,11.07
2019-03-08T06:12:43.546Z,19.70
2019-03-08T06:18:00.312Z,11.27
2019-03-08T06:23:18.504Z,9.97
2019-03-08T06:28:35.612Z,11.90
2019-03-08T06:33:52.365Z,8.03
2019-03-08T06:39:09.413Z,15.10
2019-03-08T06:44:26.951Z,9.20
2019-03-08T06:49:44.648Z,13.37
2019-03-08T06:55:01.750Z,19.30
2019-03-08T07:00:37.369Z,9.60
2019-03-08T07:05:54.371Z,18.60
2019-03-08T07:11:11.758Z,15.60
2019-03-08T07:16:28.485Z,16.60
2019-03-08T07:27:44.191Z,16.23
2019-03-08T07:33:20.267Z,11.00
2019-03-08T07:38:56.140Z,14.87
2019-03-08T07:44:32.049Z,8.10
2019-03-08T07:49:57.367Z,16.57
2019-03-08T07:55:58.654Z,23.10
2019-03-08T08:01:34.509Z,9.17
2019-03-08T08:07:10.447Z,22.70
2019-03-08T08:12:49.020Z,13.93
2019-03-08T08:18:19.595Z,10.97
2019-03-08T08:23:58.160Z,18.70
2019-03-08T08:29:39.921Z,16.70
2019-03-08T08:35:06.214Z,9.63
2019-03-08T08:40:42.483Z,23.57
2019-03-08T08:46:09.667Z,24.20
2019-03-08T08:51:45.213Z,12.23
2019-03-08T08:57:20.927Z,34.93
2019-03-08T09:02:45.154Z,15.30
2019-03-08T09:08:21.094Z,12.33
2019-03-08T09:14:07.326Z,25.53
2019-03-08T09:19:43.402Z,20.57
2019-03-08T09:25:24.638Z,16.87
2019-03-08T09:31:03.307Z,17.30
2019-03-08T09:36:47.502Z,26.17
2019-03-08T09:42:44.428Z,18.43
2019-03-08T09:48:19.613Z,19.20
2019-03-08T09:53:50.420Z,22.27
2019-03-08T09:59:20.213Z,29.43
2019-03-08T10:04:58.333Z,17.80
2019-03-08T10:10:30.905Z,23.87
2019-03-08T10:15:52.260Z,22.50
2019-03-08T10:21:31.030Z,10.67
2019-03-08T10:27:06.859Z,11.07
2019-03-08T10:32:42.954Z,7.50
2019-03-08T10:38:22.126Z,15.27
2019-03-08T10:44:15.677Z,14.43
2019-03-08T10:49:55.302Z,14.27
2019-03-08T10:55:28.110Z,16.23
2019-03-08T11:01:04.112Z,12.80
2019-03-08T11:06:39.362Z,8.73
2019-03-08T11:12:18.344Z,17.63
2019-03-08T11:23:28.536Z,11.53
2019-03-08T11:29:24.455Z,9.90
2019-03-08T11:35:19.930Z,21.90
2019-03-08T11:40:55.679Z,14.10
2019-03-08T11:46:37.572Z,9.80
2019-03-08T11:52:13.442Z,10.07
2019-03-08T12:03:26.031Z,10.30
2019-03-08T12:09:01.585Z,12.23
2019-03-08T12:14:27.894Z,9.93
2019-03-08T12:20:09.407Z,10.73
2019-03-08T12:26:06.117Z,11.70
2019-03-08T12:32:04.576Z,7.47
2019-03-08T12:37:40.486Z,15.87
2019-03-08T12:48:52.959Z,12.60
2019-03-08T12:54:28.687Z,12.97
2019-03-08T13:00:10.266Z,15.00
2019-03-08T13:05:52.216Z,9.43
2019-03-08T13:11:33.126Z,15.03
2019-03-08T13:16:47.366Z,11.70
2019-03-08T13:22:04.447Z,14.73
2019-03-08T13:27:21.623Z,13.60
2019-03-08T13:32:38.401Z,19.73
2019-03-08T13:37:55.081Z,17.73
2019-03-08T13:43:11.950Z,16.53
2019-03-08T13:48:28.507Z,12.50
2019-03-08T13:53:45.166Z,18.73
2019-03-08T13:59:02.556Z,11.90
2019-03-08T14:04:19.430Z,16.50
2019-03-08T14:09:36.307Z,18.90
2019-03-08T14:14:55.286Z,13.80
2019-03-08T14:20:11.520Z,17.70
2019-03-08T14:25:28.658Z,14.83
2019-03-08T14:36:21.245Z,18.03
2019-03-08T14:41:57.208Z,16.13
2019-03-08T14:47:36.070Z,14.97
2019-03-08T14:53:12.769Z,19.40
2019-03-08T14:58:32.591Z,8.93
2019-03-08T15:03:47.722Z,6.23
2019-03-08T15:09:05.126Z,9.47
2019-03-08T15:14:22.174Z,9.43
2019-03-08T15:19:40.304Z,7.53
2019-03-08T15:24:57.587Z,5.83
2019-03-08T15:30:14.440Z,5.17
2019-03-08T15:35:31.250Z,8.67
2019-03-08T15:40:48.910Z,8.30
2019-03-08T15:46:05.930Z,7.97
2019-03-08T15:51:25.228Z,8.43
2019-03-08T15:56:41.109Z,11.63
2019-03-08T16:01:57.853Z,10.93
2019-03-08T16:07:14.364Z,9.67
2019-03-08T16:12:30.903Z,16.43
2019-03-08T16:17:47.814Z,17.30
2019-03-08T16:23:06.663Z,5.73
2019-03-08T16:28:22.417Z,8.57
2019-03-08T16:33:42.366Z,8.30
2019-03-08T16:39:21.487Z,9.40
2019-03-08T16:45:22.967Z,9.00
2019-03-08T16:51:19.828Z,10.20
2019-03-08T16:56:55.273Z,12.63
2019-03-08T17:08:06.903Z,11.87
2019-03-08T17:19:22.844Z,16.20
2019-03-08T17:24:52.923Z,21.60
2019-03-08T17:30:28.771Z,17.52
2019-03-08T17:36:09.977Z,13.98
2019-03-08T17:41:51.915Z,14.57
2019-03-08T17:53:30.130Z,13.00
2019-03-08T17:59:05.434Z,10.03
2019-03-08T18:04:41.065Z,17.77
2019-03-08T18:10:16.615Z,20.75
2019-03-08T18:15:41.709Z,10.27
2019-03-08T18:21:37.740Z,20.02
2019-03-08T18:27:13.228Z,16.17
2019-03-08T18:32:35.856Z,5.83
2019-03-08T18:38:11.469Z,8.43
2019-03-08T18:43:47.194Z,8.15
2019-03-08T18:55:11.465Z,4.00
2019-03-08T19:00:50.277Z,5.57
2019-03-08T19:06:51.835Z,4.23
2019-03-08T19:12:52.134Z,5.40
2019-03-08T19:24:33.318Z,3.37
2019-03-08T19:42:01.843Z,4.07
2019-03-08T19:47:46.630Z,2.77
2019-03-08T19:53:21.981Z,2.33
2019-03-08T19:58:46.808Z,3.10
2019-03-08T20:04:48.582Z,3.80
2019-03-08T20:10:16.767Z,2.27
2019-03-08T20:16:13.791Z,1.73
2019-03-08T20:21:39.475Z,0.80
2019-03-08T20:27:35.027Z,2.67
2019-03-08T20:33:13.803Z,1.70
2019-03-08T20:38:49.830Z,1.27
2019-03-08T20:49:40.951Z,1.27
2019-03-08T20:55:01.486Z,3.37
2019-03-08T21:00:18.289Z,1.23
2019-03-08T21:05:34.573Z,2.37
2019-03-08T21:10:51.417Z,3.10
2019-03-08T21:16:08.299Z,4.83
2019-03-08T21:21:24.997Z,3.60
2019-03-08T21:26:42.105Z,0.67
2019-03-08T21:31:59.143Z,4.30
2019-03-08T21:37:17.263Z,2.23
2019-03-08T21:42:33.754Z,2.67
2019-03-08T21:47:50.701Z,2.53
2019-03-08T21:53:07.614Z,2.53
2019-03-08T21:58:24.259Z,1.47
2019-03-08T22:03:41.396Z,0.60
2019-03-08T22:14:31.578Z,2.37
2019-03-08T22:19:48.434Z,2.03
2019-03-08T22:25:05.576Z,2.37
2019-03-08T22:30:22.378Z,1.80
2019-03-08T22:35:38.877Z,1.98
2019-03-08T22:40:55.943Z,3.27
2019-03-08T22:46:12.926Z,2.80
2019-03-08T22:51:29.709Z,2.03
2019-03-08T22:56:46.466Z,3.00
2019-03-08T23:02:03.102Z,2.97
2019-03-08T23:07:20.169Z,1.70
2019-03-08T23:12:37.263Z,2.47
2019-03-08T23:17:53.990Z,2.00
2019-03-08T23:23:10.870Z,0.80
2019-03-08T23:28:46.451Z,3.37
2019-03-08T23:34:03.298Z,2.58
2019-03-08T23:39:19.795Z,2.20
2019-03-08T23:44:36.365Z,2.70
2019-03-08T23:49:53.310Z,3.27
2019-03-08T23:55:09.908Z,3.63
